sensor_id;sensor_type;location;lat;lon;timestamp;P1;durP1;ratioP1;P2;durP2;ratioP2
3549;SDS011;45572;48.804;8.330;2023-02-15T00:01:42;30.58;;;14.63;;
3549;SDS011;45572;48.804;8.330;2023-02-15T00:04:13;27.75;;;14.02;;
3549;SDS011;45572;48.804;8.330;2023-02-15T00:06:43;35.58;;;14.63;;
3549;SDS011;45572;48.804;8.330;2023-02-15T00:09:11;29.92;;;14.48;;
3549;SDS011;45572;48.804;8.330;2023-02-15T00:11:39;24.75;;;11.43;;
3549;SDS011;45572;48.804;8.330;2023-02-15T00:14:10;31.45;;;15.15;;
3549;SDS011;45572;48.804;8.330;2023-02-15T00:16:39;29.38;;;14.18;;
3549;SDS011;45572;48.804;8.330;2023-02-15T00:19:09;29.05;;;13.27;;
3549;SDS011;45572;48.804;8.330;2023-02-15T00:21:39;29.05;;;13.57;;
3549;SDS011;45572;48.804;8.330;2023-02-15T00:24:07;27.77;;;14.50;;
3549;SDS011;45572;48.804;8.330;2023-02-15T00:26:37;22.90;;;12.63;;
3549;SDS011;45572;48.804;8.330;2023-02-15T00:29:06;31.00;;;13.30;;
3549;SDS011;45572;48.804;8.330;2023-02-15T00:31:35;32.78;;;15.43;;
3549;SDS011;45572;48.804;8.330;2023-02-15T00:34:04;23.92;;;12.10;;
3549;SDS011;45572;48.804;8.330;2023-02-15T00:36:34;29.63;;;13.35;;
3549;SDS011;45572;48.804;8.330;2023-02-15T00:39:03;31.42;;;14.23;;
3549;SDS011;45572;48.804;8.330;2023-02-15T00:41:31;24.50;;;13.40;;
3549;SDS011;45572;48.804;8.330;2023-02-15T00:44:00;32.72;;;11.80;;
3549;SDS011;45572;48.804;8.330;2023-02-15T00:46:28;24.77;;;12.80;;
3549;SDS011;45572;48.804;8.330;2023-02-15T00:48:57;25.90;;;10.85;;
3549;SDS011;45572;48.804;8.330;2023-02-15T00:51:25;28.40;;;13.15;;
3549;SDS011;45572;48.804;8.330;2023-02-15T00:53:53;32.55;;;13.25;;
3549;SDS011;45572;48.804;8.330;2023-02-15T00:56:22;34.38;;;14.02;;
3549;SDS011;45572;48.804;8.330;2023-02-15T00:58:50;26.70;;;12.02;;
3549;SDS011;45572;48.804;8.330;2023-02-15T01:01:18;30.05;;;14.10;;
3549;SDS011;45572;48.804;8.330;2023-02-15T01:03:49;28.52;;;13.05;;
3549;SDS011;45572;48.804;8.330;2023-02-15T01:06:17;23.58;;;12.10;;
3549;SDS011;45572;48.804;8.330;2023-02-15T01:08:46;28.58;;;13.55;;
3549;SDS011;45572;48.804;8.330;2023-02-15T01:11:14;28.85;;;11.95;;
3549;SDS011;45572;48.804;8.330;2023-02-15T01:13:51;23.73;;;12.30;;
3549;SDS011;45572;48.804;8.330;2023-02-15T01:16:21;24.48;;;11.73;;
3549;SDS011;45572;48.804;8.330;2023-02-15T01:18:49;25.08;;;12.02;;
3549;SDS011;45572;48.804;8.330;2023-02-15T01:21:17;30.50;;;13.02;;
3549;SDS011;45572;48.804;8.330;2023-02-15T01:23:48;23.20;;;12.43;;
3549;SDS011;45572;48.804;8.330;2023-02-15T01:26:16;24.70;;;11.32;;
3549;SDS011;45572;48.804;8.330;2023-02-15T01:28:44;19.60;;;11.25;;
3549;SDS011;45572;48.804;8.330;2023-02-15T01:31:14;26.02;;;10.82;;
3549;SDS011;45572;48.804;8.330;2023-02-15T01:33:44;30.15;;;14.48;;
3549;SDS011;45572;48.804;8.330;2023-02-15T01:36:12;29.00;;;11.75;;
3549;SDS011;45572;48.804;8.330;2023-02-15T01:38:40;30.17;;;14.05;;
3549;SDS011;45572;48.804;8.330;2023-02-15T01:41:08;29.85;;;13.18;;
3549;SDS011;45572;48.804;8.330;2023-02-15T01:43:51;30.65;;;12.75;;
3549;SDS011;45572;48.804;8.330;2023-02-15T01:46:22;23.48;;;12.07;;
3549;SDS011;45572;48.804;8.330;2023-02-15T01:48:55;25.52;;;12.95;;
3549;SDS011;45572;48.804;8.330;2023-02-15T01:51:27;25.85;;;11.15;;
3549;SDS011;45572;48.804;8.330;2023-02-15T01:53:59;28.88;;;13.68;;
3549;SDS011;45572;48.804;8.330;2023-02-15T01:56:34;38.03;;;12.07;;
3549;SDS011;45572;48.804;8.330;2023-02-15T01:59:06;25.70;;;12.35;;
3549;SDS011;45572;48.804;8.330;2023-02-15T02:01:37;38.78;;;14.02;;
3549;SDS011;45572;48.804;8.330;2023-02-15T02:04:08;27.90;;;13.25;;
3549;SDS011;45572;48.804;8.330;2023-02-15T02:06:39;33.85;;;12.30;;
3549;SDS011;45572;48.804;8.330;2023-02-15T02:09:08;29.73;;;11.38;;
3549;SDS011;45572;48.804;8.330;2023-02-15T02:11:36;26.58;;;12.38;;
3549;SDS011;45572;48.804;8.330;2023-02-15T02:14:06;21.67;;;9.25;;
3549;SDS011;45572;48.804;8.330;2023-02-15T02:16:36;26.77;;;13.05;;
3549;SDS011;45572;48.804;8.330;2023-02-15T02:19:19;33.67;;;11.88;;
3549;SDS011;45572;48.804;8.330;2023-02-15T02:22:15;23.85;;;10.75;;
3549;SDS011;45572;48.804;8.330;2023-02-15T02:25:02;24.98;;;10.80;;
3549;SDS011;45572;48.804;8.330;2023-02-15T02:27:50;27.88;;;12.25;;
3549;SDS011;45572;48.804;8.330;2023-02-15T02:30:33;25.63;;;10.52;;
3549;SDS011;45572;48.804;8.330;2023-02-15T02:36:07;22.63;;;10.70;;
3549;SDS011;45572;48.804;8.330;2023-02-15T02:38:44;20.02;;;9.40;;
3549;SDS011;45572;48.804;8.330;2023-02-15T02:41:21;24.05;;;9.65;;
3549;SDS011;45572;48.804;8.330;2023-02-15T02:43:54;20.75;;;9.82;;
3549;SDS011;45572;48.804;8.330;2023-02-15T02:46:31;26.25;;;10.38;;
3549;SDS011;45572;48.804;8.330;2023-02-15T02:49:03;22.48;;;10.40;;
3549;SDS011;45572;48.804;8.330;2023-02-15T02:51:30;16.98;;;9.20;;
3549;SDS011;45572;48.804;8.330;2023-02-15T02:53:59;19.63;;;9.68;;
3549;SDS011;45572;48.804;8.330;2023-02-15T02:56:33;21.20;;;9.05;;
3549;SDS011;45572;48.804;8.330;2023-02-15T02:59:04;25.05;;;10.68;;
3549;SDS011;45572;48.804;8.330;2023-02-15T03:01:37;21.10;;;10.18;;
3549;SDS011;45572;48.804;8.330;2023-02-15T03:04:10;20.15;;;8.45;;
3549;SDS011;45572;48.804;8.330;2023-02-15T03:06:42;15.85;;;8.63;;
3549;SDS011;45572;48.804;8.330;2023-02-15T03:09:18;17.42;;;8.35;;
3549;SDS011;45572;48.804;8.330;2023-02-15T03:12:00;24.70;;;11.13;;
3549;SDS011;45572;48.804;8.330;2023-02-15T03:14:32;18.45;;;9.98;;
3549;SDS011;45572;48.804;8.330;2023-02-15T03:17:01;20.45;;;9.95;;
3549;SDS011;45572;48.804;8.330;2023-02-15T03:19:34;20.85;;;8.95;;
3549;SDS011;45572;48.804;8.330;2023-02-15T03:22:04;23.77;;;10.25;;
3549;SDS011;45572;48.804;8.330;2023-02-15T03:24:37;18.67;;;9.10;;
3549;SDS011;45572;48.804;8.330;2023-02-15T03:27:10;21.70;;;10.60;;
3549;SDS011;45572;48.804;8.330;2023-02-15T03:29:43;26.98;;;10.23;;
3549;SDS011;45572;48.804;8.330;2023-02-15T03:32:13;30.17;;;10.90;;
3549;SDS011;45572;48.804;8.330;2023-02-15T03:34:44;20.52;;;10.13;;
3549;SDS011;45572;48.804;8.330;2023-02-15T03:37:13;28.85;;;11.75;;
3549;SDS011;45572;48.804;8.330;2023-02-15T03:39:47;23.73;;;9.55;;
3549;SDS011;45572;48.804;8.330;2023-02-15T03:42:22;23.70;;;10.98;;
3549;SDS011;45572;48.804;8.330;2023-02-15T03:44:54;19.33;;;9.32;;
3549;SDS011;45572;48.804;8.330;2023-02-15T03:47:25;18.77;;;8.95;;
3549;SDS011;45572;48.804;8.330;2023-02-15T03:49:58;23.27;;;9.70;;
3549;SDS011;45572;48.804;8.330;2023-02-15T03:52:29;25.73;;;11.27;;
3549;SDS011;45572;48.804;8.330;2023-02-15T03:54:58;21.13;;;10.50;;
3549;SDS011;45572;48.804;8.330;2023-02-15T03:57:28;18.27;;;10.10;;
3549;SDS011;45572;48.804;8.330;2023-02-15T04:00:12;23.83;;;10.48;;
3549;SDS011;45572;48.804;8.330;2023-02-15T04:03:00;18.48;;;10.77;;
3549;SDS011;45572;48.804;8.330;2023-02-15T04:05:37;20.83;;;10.10;;
3549;SDS011;45572;48.804;8.330;2023-02-15T04:08:05;18.45;;;9.48;;
3549;SDS011;45572;48.804;8.330;2023-02-15T04:10:33;15.93;;;9.18;;
3549;SDS011;45572;48.804;8.330;2023-02-15T04:13:14;22.10;;;9.52;;
3549;SDS011;45572;48.804;8.330;2023-02-15T04:15:42;18.42;;;8.80;;
3549;SDS011;45572;48.804;8.330;2023-02-15T04:18:24;16.85;;;8.85;;
3549;SDS011;45572;48.804;8.330;2023-02-15T04:21:07;21.77;;;8.52;;
3549;SDS011;45572;48.804;8.330;2023-02-15T04:23:49;21.50;;;8.77;;
3549;SDS011;45572;48.804;8.330;2023-02-15T04:26:30;18.95;;;9.13;;
3549;SDS011;45572;48.804;8.330;2023-02-15T04:28:58;14.95;;;7.18;;
3549;SDS011;45572;48.804;8.330;2023-02-15T04:31:26;17.02;;;7.72;;
3549;SDS011;45572;48.804;8.330;2023-02-15T04:33:54;15.55;;;7.70;;
3549;SDS011;45572;48.804;8.330;2023-02-15T04:36:23;16.95;;;7.28;;
3549;SDS011;45572;48.804;8.330;2023-02-15T04:38:50;17.85;;;7.78;;
3549;SDS011;45572;48.804;8.330;2023-02-15T04:41:19;16.60;;;8.45;;
3549;SDS011;45572;48.804;8.330;2023-02-15T04:43:47;12.88;;;7.20;;
3549;SDS011;45572;48.804;8.330;2023-02-15T04:46:15;17.95;;;7.63;;
3549;SDS011;45572;48.804;8.330;2023-02-15T04:48:43;17.40;;;8.55;;
3549;SDS011;45572;48.804;8.330;2023-02-15T04:51:11;17.08;;;7.10;;
3549;SDS011;45572;48.804;8.330;2023-02-15T04:53:40;17.60;;;8.30;;
3549;SDS011;45572;48.804;8.330;2023-02-15T04:56:07;12.35;;;8.00;;
3549;SDS011;45572;48.804;8.330;2023-02-15T04:58:35;15.98;;;8.77;;
3549;SDS011;45572;48.804;8.330;2023-02-15T05:01:07;18.17;;;8.13;;
3549;SDS011;45572;48.804;8.330;2023-02-15T05:03:35;16.92;;;8.40;;
3549;SDS011;45572;48.804;8.330;2023-02-15T05:06:03;17.73;;;8.00;;
3549;SDS011;45572;48.804;8.330;2023-02-15T05:08:31;20.52;;;8.45;;
3549;SDS011;45572;48.804;8.330;2023-02-15T05:11:01;16.40;;;7.45;;
3549;SDS011;45572;48.804;8.330;2023-02-15T05:13:28;17.45;;;8.27;;
3549;SDS011;45572;48.804;8.330;2023-02-15T05:15:56;26.45;;;9.20;;
3549;SDS011;45572;48.804;8.330;2023-02-15T05:18:24;20.05;;;8.38;;
3549;SDS011;45572;48.804;8.330;2023-02-15T05:20:52;15.15;;;8.85;;
3549;SDS011;45572;48.804;8.330;2023-02-15T05:23:19;15.98;;;7.78;;
3549;SDS011;45572;48.804;8.330;2023-02-15T05:25:48;15.25;;;9.32;;
3549;SDS011;45572;48.804;8.330;2023-02-15T05:28:32;17.33;;;9.07;;
3549;SDS011;45572;48.804;8.330;2023-02-15T05:31:02;15.57;;;8.00;;
3549;SDS011;45572;48.804;8.330;2023-02-15T05:33:32;18.13;;;8.68;;
3549;SDS011;45572;48.804;8.330;2023-02-15T05:36:01;15.27;;;8.23;;
3549;SDS011;45572;48.804;8.330;2023-02-15T05:38:31;18.30;;;7.85;;
3549;SDS011;45572;48.804;8.330;2023-02-15T05:40:59;12.38;;;7.05;;
3549;SDS011;45572;48.804;8.330;2023-02-15T05:43:27;14.45;;;7.57;;
3549;SDS011;45572;48.804;8.330;2023-02-15T05:45:56;22.83;;;9.95;;
3549;SDS011;45572;48.804;8.330;2023-02-15T05:48:25;16.80;;;8.90;;
3549;SDS011;45572;48.804;8.330;2023-02-15T05:50:57;16.20;;;8.20;;
3549;SDS011;45572;48.804;8.330;2023-02-15T05:53:27;15.60;;;7.05;;
3549;SDS011;45572;48.804;8.330;2023-02-15T05:55:55;16.05;;;7.18;;
3549;SDS011;45572;48.804;8.330;2023-02-15T05:58:26;16.55;;;8.40;;
3549;SDS011;45572;48.804;8.330;2023-02-15T06:00:56;15.73;;;7.60;;
3549;SDS011;45572;48.804;8.330;2023-02-15T06:03:24;13.35;;;7.32;;
3549;SDS011;45572;48.804;8.330;2023-02-15T06:05:54;17.63;;;8.07;;
3549;SDS011;45572;48.804;8.330;2023-02-15T06:08:22;20.42;;;8.63;;
3549;SDS011;45572;48.804;8.330;2023-02-15T06:10:49;18.15;;;7.95;;
3549;SDS011;45572;48.804;8.330;2023-02-15T06:13:17;16.98;;;8.02;;
3549;SDS011;45572;48.804;8.330;2023-02-15T06:15:45;20.73;;;8.15;;
3549;SDS011;45572;48.804;8.330;2023-02-15T06:18:14;20.80;;;8.75;;
3549;SDS011;45572;48.804;8.330;2023-02-15T06:20:42;18.58;;;8.35;;
3549;SDS011;45572;48.804;8.330;2023-02-15T06:23:12;19.05;;;9.25;;
3549;SDS011;45572;48.804;8.330;2023-02-15T06:25:40;20.38;;;7.80;;
3549;SDS011;45572;48.804;8.330;2023-02-15T06:28:08;16.98;;;8.68;;
3549;SDS011;45572;48.804;8.330;2023-02-15T06:30:35;13.98;;;7.50;;
3549;SDS011;45572;48.804;8.330;2023-02-15T06:33:03;14.57;;;7.15;;
3549;SDS011;45572;48.804;8.330;2023-02-15T06:35:32;12.68;;;7.35;;
3549;SDS011;45572;48.804;8.330;2023-02-15T06:38:01;15.93;;;6.60;;
3549;SDS011;45572;48.804;8.330;2023-02-15T06:40:29;16.40;;;7.18;;
3549;SDS011;45572;48.804;8.330;2023-02-15T06:42:57;13.45;;;6.10;;
3549;SDS011;45572;48.804;8.330;2023-02-15T06:45:24;18.20;;;7.47;;
3549;SDS011;45572;48.804;8.330;2023-02-15T06:47:52;14.23;;;6.75;;
3549;SDS011;45572;48.804;8.330;2023-02-15T06:50:20;18.33;;;7.05;;
3549;SDS011;45572;48.804;8.330;2023-02-15T06:52:49;16.15;;;9.00;;
3549;SDS011;45572;48.804;8.330;2023-02-15T06:55:23;14.63;;;7.10;;
3549;SDS011;45572;48.804;8.330;2023-02-15T06:57:53;22.45;;;8.07;;
3549;SDS011;45572;48.804;8.330;2023-02-15T07:00:21;18.48;;;8.05;;
3549;SDS011;45572;48.804;8.330;2023-02-15T07:02:52;17.60;;;7.85;;
3549;SDS011;45572;48.804;8.330;2023-02-15T07:05:24;14.45;;;7.25;;
3549;SDS011;45572;48.804;8.330;2023-02-15T07:08:00;15.93;;;7.00;;
3549;SDS011;45572;48.804;8.330;2023-02-15T07:10:28;14.75;;;7.82;;
3549;SDS011;45572;48.804;8.330;2023-02-15T07:12:56;15.70;;;7.72;;
3549;SDS011;45572;48.804;8.330;2023-02-15T07:15:23;11.52;;;6.38;;
3549;SDS011;45572;48.804;8.330;2023-02-15T07:17:51;22.02;;;8.40;;
3549;SDS011;45572;48.804;8.330;2023-02-15T07:20:19;13.32;;;7.22;;
3549;SDS011;45572;48.804;8.330;2023-02-15T07:22:49;19.55;;;7.53;;
3549;SDS011;45572;48.804;8.330;2023-02-15T07:25:18;17.58;;;8.63;;
3549;SDS011;45572;48.804;8.330;2023-02-15T07:27:46;14.90;;;7.40;;
3549;SDS011;45572;48.804;8.330;2023-02-15T07:30:15;14.63;;;7.28;;
3549;SDS011;45572;48.804;8.330;2023-02-15T07:32:45;18.05;;;8.55;;
3549;SDS011;45572;48.804;8.330;2023-02-15T07:35:30;13.10;;;6.20;;
3549;SDS011;45572;48.804;8.330;2023-02-15T07:37:58;17.42;;;8.23;;
3549;SDS011;45572;48.804;8.330;2023-02-15T07:40:27;13.77;;;6.68;;
3549;SDS011;45572;48.804;8.330;2023-02-15T07:42:57;12.43;;;6.95;;
3549;SDS011;45572;48.804;8.330;2023-02-15T07:45:25;17.80;;;8.63;;
3549;SDS011;45572;48.804;8.330;2023-02-15T07:47:53;13.20;;;6.53;;
3549;SDS011;45572;48.804;8.330;2023-02-15T07:50:21;18.50;;;7.20;;
3549;SDS011;45572;48.804;8.330;2023-02-15T07:52:51;14.07;;;6.15;;
3549;SDS011;45572;48.804;8.330;2023-02-15T07:55:19;17.15;;;8.80;;
3549;SDS011;45572;48.804;8.330;2023-02-15T07:57:50;12.73;;;7.75;;
3549;SDS011;45572;48.804;8.330;2023-02-15T08:00:20;20.00;;;8.40;;
3549;SDS011;45572;48.804;8.330;2023-02-15T08:02:51;15.23;;;7.88;;
3549;SDS011;45572;48.804;8.330;2023-02-15T08:05:34;15.18;;;7.13;;
3549;SDS011;45572;48.804;8.330;2023-02-15T08:08:02;17.88;;;8.13;;
3549;SDS011;45572;48.804;8.330;2023-02-15T08:10:30;14.50;;;7.65;;
3549;SDS011;45572;48.804;8.330;2023-02-15T08:13:13;15.63;;;7.93;;
3549;SDS011;45572;48.804;8.330;2023-02-15T08:15:47;17.80;;;7.85;;
3549;SDS011;45572;48.804;8.330;2023-02-15T08:18:15;16.88;;;7.65;;
3549;SDS011;45572;48.804;8.330;2023-02-15T08:20:48;12.13;;;7.25;;
3549;SDS011;45572;48.804;8.330;2023-02-15T08:23:16;17.98;;;8.38;;
3549;SDS011;45572;48.804;8.330;2023-02-15T08:25:44;13.85;;;7.13;;
3549;SDS011;45572;48.804;8.330;2023-02-15T08:28:11;17.27;;;7.28;;
3549;SDS011;45572;48.804;8.330;2023-02-15T08:30:40;19.67;;;8.18;;
3549;SDS011;45572;48.804;8.330;2023-02-15T08:33:11;14.65;;;7.97;;
3549;SDS011;45572;48.804;8.330;2023-02-15T08:35:38;15.40;;;7.85;;
3549;SDS011;45572;48.804;8.330;2023-02-15T08:38:06;17.77;;;6.95;;
3549;SDS011;45572;48.804;8.330;2023-02-15T08:40:34;17.15;;;7.57;;
3549;SDS011;45572;48.804;8.330;2023-02-15T08:43:04;19.98;;;7.60;;
3549;SDS011;45572;48.804;8.330;2023-02-15T08:45:35;11.55;;;8.00;;
3549;SDS011;45572;48.804;8.330;2023-02-15T08:48:03;16.15;;;7.32;;
3549;SDS011;45572;48.804;8.330;2023-02-15T08:50:31;15.10;;;7.15;;
3549;SDS011;45572;48.804;8.330;2023-02-15T08:52:59;12.73;;;7.05;;
3549;SDS011;45572;48.804;8.330;2023-02-15T08:55:27;14.05;;;7.20;;
3549;SDS011;45572;48.804;8.330;2023-02-15T08:57:55;12.88;;;7.07;;
3549;SDS011;45572;48.804;8.330;2023-02-15T09:00:22;14.65;;;7.25;;
3549;SDS011;45572;48.804;8.330;2023-02-15T09:02:52;16.25;;;7.72;;
3549;SDS011;45572;48.804;8.330;2023-02-15T09:05:21;13.80;;;7.00;;
3549;SDS011;45572;48.804;8.330;2023-02-15T09:07:49;13.15;;;7.20;;
3549;SDS011;45572;48.804;8.330;2023-02-15T09:10:16;13.18;;;6.95;;
3549;SDS011;45572;48.804;8.330;2023-02-15T09:12:44;16.02;;;8.75;;
3549;SDS011;45572;48.804;8.330;2023-02-15T09:15:12;9.40;;;5.85;;
3549;SDS011;45572;48.804;8.330;2023-02-15T09:17:42;17.58;;;8.95;;
3549;SDS011;45572;48.804;8.330;2023-02-15T09:20:11;13.82;;;6.47;;
3549;SDS011;45572;48.804;8.330;2023-02-15T09:22:47;13.02;;;8.25;;
3549;SDS011;45572;48.804;8.330;2023-02-15T09:25:15;12.77;;;7.82;;
3549;SDS011;45572;48.804;8.330;2023-02-15T09:27:42;14.10;;;7.85;;
3549;SDS011;45572;48.804;8.330;2023-02-15T09:30:11;16.33;;;8.27;;
3549;SDS011;45572;48.804;8.330;2023-02-15T09:32:39;16.65;;;8.15;;
3549;SDS011;45572;48.804;8.330;2023-02-15T09:35:07;16.65;;;8.85;;
3549;SDS011;45572;48.804;8.330;2023-02-15T09:37:36;16.92;;;9.10;;
3549;SDS011;45572;48.804;8.330;2023-02-15T09:40:04;16.15;;;7.35;;
3549;SDS011;45572;48.804;8.330;2023-02-15T09:42:38;15.15;;;7.63;;
3549;SDS011;45572;48.804;8.330;2023-02-15T09:45:22;17.67;;;8.25;;
3549;SDS011;45572;48.804;8.330;2023-02-15T09:48:03;18.88;;;8.10;;
3549;SDS011;45572;48.804;8.330;2023-02-15T09:50:47;14.93;;;9.55;;
3549;SDS011;45572;48.804;8.330;2023-02-15T09:53:27;16.67;;;8.75;;
3549;SDS011;45572;48.804;8.330;2023-02-15T09:56:05;14.27;;;7.75;;
3549;SDS011;45572;48.804;8.330;2023-02-15T09:58:41;16.90;;;9.07;;
3549;SDS011;45572;48.804;8.330;2023-02-15T10:01:16;22.15;;;9.70;;
3549;SDS011;45572;48.804;8.330;2023-02-15T10:03:54;18.77;;;9.55;;
3549;SDS011;45572;48.804;8.330;2023-02-15T10:06:36;16.20;;;8.75;;
3549;SDS011;45572;48.804;8.330;2023-02-15T10:09:15;18.90;;;10.07;;
3549;SDS011;45572;48.804;8.330;2023-02-15T10:11:59;17.40;;;8.85;;
3549;SDS011;45572;48.804;8.330;2023-02-15T10:14:42;16.20;;;8.13;;
3549;SDS011;45572;48.804;8.330;2023-02-15T10:17:31;14.20;;;8.38;;
3549;SDS011;45572;48.804;8.330;2023-02-15T10:20:10;16.02;;;9.40;;
3549;SDS011;45572;48.804;8.330;2023-02-15T10:22:50;18.38;;;9.63;;
3549;SDS011;45572;48.804;8.330;2023-02-15T10:25:33;16.13;;;9.00;;
3549;SDS011;45572;48.804;8.330;2023-02-15T10:28:09;19.35;;;8.90;;
3549;SDS011;45572;48.804;8.330;2023-02-15T10:30:43;18.70;;;9.32;;
3549;SDS011;45572;48.804;8.330;2023-02-15T10:33:20;16.67;;;8.98;;
3549;SDS011;45572;48.804;8.330;2023-02-15T10:36:04;22.38;;;10.38;;
3549;SDS011;45572;48.804;8.330;2023-02-15T10:38:44;16.80;;;9.10;;
3549;SDS011;45572;48.804;8.330;2023-02-15T10:41:24;18.73;;;9.05;;
3549;SDS011;45572;48.804;8.330;2023-02-15T10:44:05;14.73;;;9.05;;
3549;SDS011;45572;48.804;8.330;2023-02-15T10:46:51;17.75;;;9.52;;
3549;SDS011;45572;48.804;8.330;2023-02-15T10:49:36;16.90;;;8.48;;
3549;SDS011;45572;48.804;8.330;2023-02-15T10:52:18;17.65;;;9.48;;
3549;SDS011;45572;48.804;8.330;2023-02-15T10:54:59;20.45;;;10.05;;
3549;SDS011;45572;48.804;8.330;2023-02-15T10:57:39;17.00;;;10.20;;
3549;SDS011;45572;48.804;8.330;2023-02-15T11:00:18;15.98;;;9.65;;
3549;SDS011;45572;48.804;8.330;2023-02-15T11:03:05;16.38;;;8.70;;
3549;SDS011;45572;48.804;8.330;2023-02-15T11:05:47;15.23;;;9.00;;
3549;SDS011;45572;48.804;8.330;2023-02-15T11:08:29;18.23;;;9.60;;
3549;SDS011;45572;48.804;8.330;2023-02-15T11:11:02;16.17;;;9.77;;
3549;SDS011;45572;48.804;8.330;2023-02-15T11:13:36;18.33;;;10.45;;
3549;SDS011;45572;48.804;8.330;2023-02-15T11:16:10;27.55;;;13.30;;
3549;SDS011;45572;48.804;8.330;2023-02-15T11:18:45;16.55;;;9.63;;
3549;SDS011;45572;48.804;8.330;2023-02-15T11:21:17;23.33;;;10.85;;
3549;SDS011;45572;48.804;8.330;2023-02-15T11:23:49;24.67;;;10.35;;
3549;SDS011;45572;48.804;8.330;2023-02-15T11:26:19;22.40;;;10.23;;
3549;SDS011;45572;48.804;8.330;2023-02-15T11:28:56;16.80;;;9.40;;
3549;SDS011;45572;48.804;8.330;2023-02-15T11:31:26;19.48;;;9.50;;
3549;SDS011;45572;48.804;8.330;2023-02-15T11:34:03;18.33;;;9.10;;
3549;SDS011;45572;48.804;8.330;2023-02-15T11:36:38;18.52;;;9.73;;
3549;SDS011;45572;48.804;8.330;2023-02-15T11:39:09;19.50;;;9.40;;
3549;SDS011;45572;48.804;8.330;2023-02-15T11:41:43;18.63;;;9.40;;
3549;SDS011;45572;48.804;8.330;2023-02-15T11:44:20;18.60;;;10.13;;
3549;SDS011;45572;48.804;8.330;2023-02-15T11:46:54;16.85;;;9.73;;
3549;SDS011;45572;48.804;8.330;2023-02-15T11:49:24;20.00;;;10.57;;
3549;SDS011;45572;48.804;8.330;2023-02-15T11:51:56;17.13;;;9.15;;
3549;SDS011;45572;48.804;8.330;2023-02-15T11:54:26;15.20;;;9.65;;
3549;SDS011;45572;48.804;8.330;2023-02-15T11:56:55;16.02;;;9.18;;
3549;SDS011;45572;48.804;8.330;2023-02-15T11:59:31;20.45;;;9.32;;
3549;SDS011;45572;48.804;8.330;2023-02-15T12:02:02;16.73;;;8.57;;
3549;SDS011;45572;48.804;8.330;2023-02-15T12:04:43;17.33;;;7.57;;
3549;SDS011;45572;48.804;8.330;2023-02-15T12:07:17;18.20;;;9.25;;
3549;SDS011;45572;48.804;8.330;2023-02-15T12:09:50;19.52;;;11.35;;
3549;SDS011;45572;48.804;8.330;2023-02-15T12:12:23;19.00;;;11.27;;
3549;SDS011;45572;48.804;8.330;2023-02-15T12:14:55;20.88;;;10.00;;
3549;SDS011;45572;48.804;8.330;2023-02-15T12:17:24;21.35;;;11.32;;
3549;SDS011;45572;48.804;8.330;2023-02-15T12:19:57;16.40;;;10.20;;
3549;SDS011;45572;48.804;8.330;2023-02-15T12:22:28;19.95;;;9.80;;
3549;SDS011;45572;48.804;8.330;2023-02-15T12:24:59;17.20;;;10.05;;
3549;SDS011;45572;48.804;8.330;2023-02-15T12:27:30;19.05;;;10.68;;
3549;SDS011;45572;48.804;8.330;2023-02-15T12:30:01;20.85;;;11.43;;
3549;SDS011;45572;48.804;8.330;2023-02-15T12:32:34;22.65;;;11.80;;
3549;SDS011;45572;48.804;8.330;2023-02-15T12:35:06;20.38;;;10.88;;
3549;SDS011;45572;48.804;8.330;2023-02-15T12:37:50;27.63;;;13.40;;
3549;SDS011;45572;48.804;8.330;2023-02-15T12:40:22;18.83;;;11.48;;
3549;SDS011;45572;48.804;8.330;2023-02-15T12:42:52;22.20;;;11.07;;
3549;SDS011;45572;48.804;8.330;2023-02-15T12:45:23;19.20;;;10.77;;
3549;SDS011;45572;48.804;8.330;2023-02-15T12:48:07;22.58;;;10.90;;
3549;SDS011;45572;48.804;8.330;2023-02-15T12:50:42;25.42;;;11.75;;
3549;SDS011;45572;48.804;8.330;2023-02-15T12:53:14;26.77;;;12.20;;
3549;SDS011;45572;48.804;8.330;2023-02-15T12:55:53;24.83;;;11.63;;
3549;SDS011;45572;48.804;8.330;2023-02-15T12:58:22;21.27;;;10.93;;
3549;SDS011;45572;48.804;8.330;2023-02-15T13:01:04;20.17;;;10.95;;
3549;SDS011;45572;48.804;8.330;2023-02-15T13:03:40;21.58;;;11.85;;
3549;SDS011;45572;48.804;8.330;2023-02-15T13:06:22;17.48;;;10.23;;
3549;SDS011;45572;48.804;8.330;2023-02-15T13:08:50;25.35;;;12.45;;
3549;SDS011;45572;48.804;8.330;2023-02-15T13:11:20;28.55;;;13.07;;
3549;SDS011;45572;48.804;8.330;2023-02-15T13:13:51;22.52;;;11.00;;
3549;SDS011;45572;48.804;8.330;2023-02-15T13:16:24;23.08;;;12.32;;
3549;SDS011;45572;48.804;8.330;2023-02-15T13:18:58;20.73;;;10.73;;
3549;SDS011;45572;48.804;8.330;2023-02-15T13:21:32;23.10;;;11.90;;
3549;SDS011;45572;48.804;8.330;2023-02-15T13:24:05;16.55;;;9.75;;
3549;SDS011;45572;48.804;8.330;2023-02-15T13:26:43;20.83;;;11.35;;
3549;SDS011;45572;48.804;8.330;2023-02-15T13:29:15;26.23;;;12.38;;
3549;SDS011;45572;48.804;8.330;2023-02-15T13:31:50;25.73;;;12.88;;
3549;SDS011;45572;48.804;8.330;2023-02-15T13:34:20;25.08;;;13.00;;
3549;SDS011;45572;48.804;8.330;2023-02-15T13:36:52;21.67;;;11.77;;
3549;SDS011;45572;48.804;8.330;2023-02-15T13:39:24;22.88;;;11.75;;
3549;SDS011;45572;48.804;8.330;2023-02-15T13:42:00;26.85;;;12.95;;
3549;SDS011;45572;48.804;8.330;2023-02-15T13:44:42;23.77;;;11.90;;
3549;SDS011;45572;48.804;8.330;2023-02-15T13:47:26;24.55;;;12.75;;
3549;SDS011;45572;48.804;8.330;2023-02-15T13:50:04;25.17;;;12.50;;
3549;SDS011;45572;48.804;8.330;2023-02-15T13:52:51;24.75;;;12.75;;
3549;SDS011;45572;48.804;8.330;2023-02-15T13:55:29;26.38;;;13.30;;
3549;SDS011;45572;48.804;8.330;2023-02-15T13:58:09;25.92;;;12.88;;
3549;SDS011;45572;48.804;8.330;2023-02-15T14:00:51;26.30;;;15.27;;
3549;SDS011;45572;48.804;8.330;2023-02-15T14:06:29;35.88;;;15.30;;
3549;SDS011;45572;48.804;8.330;2023-02-15T14:09:09;30.58;;;16.77;;
3549;SDS011;45572;48.804;8.330;2023-02-15T14:11:50;27.45;;;12.57;;
3549;SDS011;45572;48.804;8.330;2023-02-15T14:14:26;35.22;;;13.85;;
3549;SDS011;45572;48.804;8.330;2023-02-15T14:17:08;26.83;;;14.13;;
3549;SDS011;45572;48.804;8.330;2023-02-15T14:19:46;32.15;;;14.13;;
3549;SDS011;45572;48.804;8.330;2023-02-15T14:22:20;23.42;;;14.05;;
3549;SDS011;45572;48.804;8.330;2023-02-15T14:24:59;30.13;;;18.65;;
3549;SDS011;45572;48.804;8.330;2023-02-15T14:27:43;33.80;;;15.43;;
3549;SDS011;45572;48.804;8.330;2023-02-15T14:30:19;29.10;;;14.40;;
3549;SDS011;45572;48.804;8.330;2023-02-15T14:32:52;31.40;;;15.10;;
3549;SDS011;45572;48.804;8.330;2023-02-15T14:35:25;32.40;;;15.55;;
3549;SDS011;45572;48.804;8.330;2023-02-15T14:37:58;30.67;;;16.13;;
3549;SDS011;45572;48.804;8.330;2023-02-15T14:40:33;34.03;;;15.57;;
3549;SDS011;45572;48.804;8.330;2023-02-15T14:43:24;32.40;;;15.95;;
3549;SDS011;45572;48.804;8.330;2023-02-15T14:46:01;29.60;;;15.23;;
3549;SDS011;45572;48.804;8.330;2023-02-15T14:48:38;27.08;;;14.93;;
3549;SDS011;45572;48.804;8.330;2023-02-15T14:54:52;33.92;;;17.80;;
3549;SDS011;45572;48.804;8.330;2023-02-15T14:57:23;34.67;;;15.15;;
3549;SDS011;45572;48.804;8.330;2023-02-15T14:59:55;29.05;;;15.35;;
3549;SDS011;45572;48.804;8.330;2023-02-15T15:02:25;33.42;;;17.40;;
3549;SDS011;45572;48.804;8.330;2023-02-15T15:04:57;30.25;;;15.73;;
3549;SDS011;45572;48.804;8.330;2023-02-15T15:07:35;29.48;;;17.35;;
3549;SDS011;45572;48.804;8.330;2023-02-15T15:18:59;40.63;;;19.35;;
3549;SDS011;45572;48.804;8.330;2023-02-15T15:33:11;32.33;;;16.02;;
3549;SDS011;45572;48.804;8.330;2023-02-15T15:35:52;33.67;;;15.27;;
3549;SDS011;45572;48.804;8.330;2023-02-15T15:38:35;35.53;;;16.13;;
3549;SDS011;45572;48.804;8.330;2023-02-15T15:41:16;32.97;;;16.23;;
3549;SDS011;45572;48.804;8.330;2023-02-15T15:46:51;33.53;;;18.02;;